createdAt,value
2023-05-15T00:02:38.862Z,0.45
2023-05-15T00:07:32.219Z,0.40
2023-05-15T00:12:24.112Z,0.40
2023-05-15T00:17:15.758Z,0.38
2023-05-15T00:22:08.725Z,0.60
2023-05-15T00:27:00.923Z,0.50
2023-05-15T00:31:52.632Z,0.50
2023-05-15T00:36:45.041Z,0.50
2023-05-15T00:41:37.676Z,0.50
2023-05-15T00:46:32.215Z,0.50
2023-05-15T00:51:25.015Z,0.38
2023-05-15T00:56:17.738Z,0.30
2023-05-15T01:01:09.744Z,0.40
2023-05-15T01:06:01.559Z,0.38
2023-05-15T01:10:54.496Z,0.40
2023-05-15T01:15:46.312Z,0.50
2023-05-15T01:21:10.850Z,0.50
2023-05-15T01:26:35.212Z,0.40
2023-05-15T01:31:31.674Z,0.68
2023-05-15T01:36:33.300Z,0.30
2023-05-15T01:41:43.003Z,0.40
2023-05-15T01:46:45.946Z,0.32
2023-05-15T01:51:45.924Z,0.40
2023-05-15T01:56:40.747Z,0.30
2023-05-15T02:06:30.368Z,0.88
2023-05-15T02:11:21.926Z,0.47
2023-05-15T02:16:13.631Z,0.25
2023-05-15T02:21:05.338Z,0.40
2023-05-15T02:26:10.660Z,0.40
2023-05-15T02:31:14.106Z,0.50
2023-05-15T02:36:08.966Z,0.30
2023-05-15T02:41:01.100Z,0.40
2023-05-15T02:45:53.066Z,0.28
2023-05-15T02:50:44.844Z,0.50
2023-05-15T02:55:38.508Z,0.20
2023-05-15T03:00:30.438Z,0.30
2023-05-15T03:05:22.053Z,0.30
2023-05-15T03:10:13.744Z,0.30
2023-05-15T03:15:06.886Z,0.30
2023-05-15T03:19:58.603Z,0.35
2023-05-15T03:24:50.254Z,0.98
2023-05-15T03:29:42.698Z,0.20
2023-05-15T03:34:34.343Z,0.28
2023-05-15T03:39:25.910Z,0.28
2023-05-15T03:44:17.487Z,0.40
2023-05-15T03:49:09.015Z,0.40
2023-05-15T03:54:00.718Z,0.30
2023-05-15T03:58:52.327Z,0.30
2023-05-15T04:03:44.007Z,0.43
2023-05-15T04:08:35.697Z,0.30
2023-05-15T04:13:27.271Z,0.25
2023-05-15T04:18:18.810Z,0.55
2023-05-15T04:23:10.437Z,0.30
2023-05-15T04:28:02.034Z,0.60
2023-05-15T04:32:53.681Z,0.55
2023-05-15T04:37:48.208Z,0.40
2023-05-15T04:42:39.893Z,0.30
2023-05-15T04:47:31.608Z,0.60
2023-05-15T04:52:23.366Z,0.60
2023-05-15T04:57:14.973Z,0.52
2023-05-15T05:02:06.625Z,0.40
2023-05-15T05:06:58.245Z,1.10
2023-05-15T05:11:49.793Z,0.28
2023-05-15T05:16:44.365Z,0.70
2023-05-15T05:21:36.294Z,0.30
2023-05-15T05:26:27.933Z,0.40
2023-05-15T05:31:21.733Z,0.60
2023-05-15T05:36:13.458Z,0.65
2023-05-15T05:41:05.086Z,0.40
2023-05-15T05:45:56.645Z,0.40
2023-05-15T05:50:48.242Z,0.32
2023-05-15T05:55:40.053Z,0.75
2023-05-15T06:00:31.726Z,0.50
2023-05-15T06:05:23.818Z,0.40
2023-05-15T06:10:15.716Z,0.60
2023-05-15T06:15:07.837Z,0.30
2023-05-15T06:19:59.508Z,0.40
2023-05-15T06:24:51.095Z,0.40
2023-05-15T06:29:42.673Z,0.50
2023-05-15T06:34:34.212Z,0.70
2023-05-15T06:39:25.828Z,0.40
2023-05-15T06:44:17.458Z,0.40
2023-05-15T06:49:09.040Z,0.47
2023-05-15T06:54:00.712Z,0.40
2023-05-15T06:58:52.306Z,0.40
2023-05-15T07:03:43.922Z,0.82
2023-05-15T07:08:35.606Z,0.30
2023-05-15T07:13:27.261Z,0.40
2023-05-15T07:18:18.880Z,0.30
2023-05-15T07:23:10.710Z,0.32
2023-05-15T07:28:02.389Z,0.40
2023-05-15T07:32:54.000Z,0.60
2023-05-15T07:37:46.717Z,0.30
2023-05-15T07:42:39.790Z,0.40
2023-05-15T07:47:31.426Z,0.40
2023-05-15T07:52:23.020Z,0.30
2023-05-15T07:57:14.958Z,0.40
2023-05-15T08:02:07.117Z,0.22
2023-05-15T08:06:58.876Z,0.30
2023-05-15T08:11:50.482Z,0.30
2023-05-15T08:16:42.418Z,0.25
2023-05-15T08:21:34.261Z,0.17
2023-05-15T08:26:26.420Z,0.13
2023-05-15T08:31:18.027Z,0.20
2023-05-15T08:36:09.830Z,0.30
2023-05-15T08:41:21.432Z,0.10
2023-05-15T08:46:20.932Z,0.10
2023-05-15T08:51:13.861Z,0.20
2023-05-15T08:56:06.086Z,0.28
2023-05-15T09:00:58.243Z,0.30
2023-05-15T09:05:53.093Z,0.40
2023-05-15T09:10:45.468Z,0.25
2023-05-15T09:15:38.065Z,0.30
2023-05-15T09:20:31.290Z,0.30
2023-05-15T09:25:35.748Z,0.25
2023-05-15T09:30:28.041Z,0.32
2023-05-15T09:35:33.579Z,0.30
2023-05-15T09:40:29.582Z,0.30
2023-05-15T09:45:21.277Z,0.30
2023-05-15T09:50:13.039Z,0.28
2023-05-15T09:55:06.294Z,0.30
2023-05-15T10:00:02.435Z,0.52
2023-05-15T10:04:56.373Z,0.30
2023-05-15T10:09:47.924Z,0.30
2023-05-15T10:14:39.615Z,0.38
2023-05-15T10:19:31.423Z,0.20
2023-05-15T10:24:25.691Z,0.30
2023-05-15T10:29:21.296Z,0.20
2023-05-15T10:34:13.399Z,0.20
2023-05-15T10:39:06.330Z,0.20
2023-05-15T10:43:59.567Z,0.20
2023-05-15T10:48:52.018Z,0.20
2023-05-15T10:53:45.177Z,0.43
2023-05-15T10:58:36.735Z,0.20
2023-05-15T11:03:48.820Z,0.30
2023-05-15T11:08:43.143Z,0.30
2023-05-15T11:14:06.165Z,0.30
2023-05-15T11:18:57.771Z,0.30
2023-05-15T11:24:04.074Z,0.60
2023-05-15T11:29:18.909Z,0.20
2023-05-15T11:34:10.505Z,0.30
2023-05-15T11:39:02.171Z,0.30
2023-05-15T11:43:53.796Z,0.25
2023-05-15T11:48:50.081Z,0.20
2023-05-15T11:53:43.060Z,0.30
2023-05-15T11:58:34.692Z,0.22
2023-05-15T12:03:26.332Z,0.30
2023-05-15T12:08:17.973Z,0.28
2023-05-15T12:13:14.199Z,0.50
2023-05-15T12:18:08.138Z,0.17
2023-05-15T12:22:59.811Z,0.40
2023-05-15T12:27:51.739Z,0.20
2023-05-15T12:32:44.046Z,0.40
2023-05-15T12:37:36.390Z,0.20
2023-05-15T12:42:28.116Z,0.60
2023-05-15T12:47:24.670Z,0.20
2023-05-15T12:52:17.180Z,0.22
2023-05-15T12:57:09.589Z,0.17
2023-05-15T13:02:01.836Z,0.28
2023-05-15T13:06:53.939Z,0.40
2023-05-15T13:11:45.611Z,0.20
2023-05-15T13:16:37.334Z,0.30
2023-05-15T13:21:29.869Z,0.30
2023-05-15T13:26:21.885Z,0.20
2023-05-15T13:31:13.602Z,0.25
2023-05-15T13:36:05.598Z,0.20
2023-05-15T13:40:57.294Z,0.20
2023-05-15T13:45:49.162Z,0.30
2023-05-15T13:50:40.790Z,0.15
2023-05-15T13:55:32.437Z,0.20
2023-05-15T14:00:24.977Z,0.30
2023-05-15T14:05:17.600Z,0.30
2023-05-15T14:10:09.991Z,0.20
2023-05-15T14:15:01.664Z,0.20
2023-05-15T14:19:53.462Z,0.32
2023-05-15T14:24:45.086Z,0.20
2023-05-15T14:29:36.791Z,0.30
2023-05-15T14:34:30.734Z,0.20
2023-05-15T14:39:22.243Z,0.20
2023-05-15T14:44:13.913Z,0.30
2023-05-15T14:49:05.666Z,0.30
2023-05-15T14:53:57.610Z,0.30
2023-05-15T14:58:50.842Z,0.20
2023-05-15T15:03:45.287Z,0.30
2023-05-15T15:08:37.132Z,0.20
2023-05-15T15:13:30.025Z,0.20
2023-05-15T15:18:22.208Z,0.30
2023-05-15T15:23:13.853Z,0.63
2023-05-15T15:28:05.524Z,0.55
2023-05-15T15:32:57.934Z,0.20
2023-05-15T15:37:49.684Z,0.30
2023-05-15T15:42:41.240Z,0.20
2023-05-15T15:47:33.015Z,0.30
2023-05-15T15:52:26.770Z,0.32
2023-05-15T15:57:19.337Z,0.30
2023-05-15T16:02:12.712Z,0.30
2023-05-15T16:07:05.457Z,0.30
2023-05-15T16:11:57.432Z,0.20
2023-05-15T16:16:49.223Z,0.20
2023-05-15T16:21:40.992Z,0.20
2023-05-15T16:26:32.781Z,0.35
2023-05-15T16:31:24.592Z,0.40
2023-05-15T16:36:17.053Z,0.30
2023-05-15T16:41:08.935Z,0.30
2023-05-15T16:46:00.541Z,0.40
2023-05-15T16:50:52.890Z,0.70
2023-05-15T16:55:44.933Z,0.45
2023-05-15T17:00:36.510Z,0.40
2023-05-15T17:05:28.222Z,0.30
2023-05-15T17:10:19.811Z,0.30
2023-05-15T17:15:11.751Z,0.40
2023-05-15T17:20:04.132Z,0.43
2023-05-15T17:24:56.418Z,0.30
2023-05-15T17:29:48.344Z,0.30
2023-05-15T17:34:40.008Z,0.40
2023-05-15T17:39:31.649Z,0.30
2023-05-15T17:44:28.049Z,0.30
2023-05-15T17:49:19.627Z,0.43
2023-05-15T17:54:11.158Z,0.45
2023-05-15T17:59:03.760Z,0.55
2023-05-15T18:03:55.547Z,0.30
2023-05-15T18:08:48.016Z,0.30
2023-05-15T18:13:39.741Z,0.30
2023-05-15T18:18:31.632Z,0.40
2023-05-15T18:23:23.205Z,0.88
2023-05-15T18:28:15.186Z,0.50
2023-05-15T18:33:07.025Z,0.20
2023-05-15T18:37:58.808Z,0.20
2023-05-15T18:42:50.728Z,0.30
2023-05-15T18:47:42.411Z,1.42
2023-05-15T18:52:34.018Z,0.55
2023-05-15T18:57:26.284Z,0.40
2023-05-15T19:02:17.913Z,0.30
2023-05-15T19:07:09.503Z,0.70
2023-05-15T19:12:02.434Z,0.40
2023-05-15T19:16:54.052Z,0.30
2023-05-15T19:21:47.636Z,0.30
2023-05-15T19:26:39.304Z,0.40
2023-05-15T19:31:32.260Z,0.30
2023-05-15T19:36:24.231Z,0.30
2023-05-15T19:41:15.795Z,0.35
2023-05-15T19:46:07.391Z,0.40
2023-05-15T19:50:59.055Z,0.50
2023-05-15T19:55:51.045Z,0.40
2023-05-15T20:00:42.724Z,0.30
2023-05-15T20:05:34.368Z,0.40
2023-05-15T20:10:26.129Z,0.20
2023-05-15T20:15:18.142Z,0.25
2023-05-15T20:20:12.254Z,0.20
2023-05-15T20:25:04.309Z,0.35
2023-05-15T20:29:56.092Z,0.30
2023-05-15T20:34:48.826Z,0.20
2023-05-15T20:39:40.421Z,0.22
2023-05-15T20:44:34.740Z,0.20
2023-05-15T20:49:26.497Z,0.30
2023-05-15T20:54:18.468Z,0.30
2023-05-15T20:59:11.013Z,0.30
2023-05-15T21:04:02.704Z,1.00
2023-05-15T21:08:54.621Z,0.20
2023-05-15T21:13:46.152Z,0.40
2023-05-15T21:18:39.028Z,0.30
2023-05-15T21:23:30.707Z,0.30
2023-05-15T21:28:22.398Z,0.40
2023-05-15T21:33:13.953Z,0.30
2023-05-15T21:38:05.741Z,0.30
2023-05-15T21:42:57.339Z,0.25
2023-05-15T21:47:49.025Z,0.60
2023-05-15T21:52:40.750Z,0.22
2023-05-15T21:57:32.294Z,0.30
2023-05-15T22:02:23.945Z,0.20
2023-05-15T22:07:15.546Z,0.30
2023-05-15T22:12:07.518Z,0.30
2023-05-15T22:16:59.497Z,0.50
2023-05-15T22:21:51.644Z,0.40
2023-05-15T22:26:43.307Z,0.50
2023-05-15T22:31:35.068Z,0.40
2023-05-15T22:36:26.791Z,0.40
2023-05-15T22:41:18.472Z,0.30
2023-05-15T22:46:10.137Z,0.30
2023-05-15T22:51:02.114Z,0.30
2023-05-15T22:55:53.732Z,0.30
2023-05-15T23:00:45.518Z,0.30
2023-05-15T23:05:37.133Z,0.32
2023-05-15T23:10:28.977Z,0.88
2023-05-15T23:15:21.389Z,3.95
2023-05-15T23:20:13.608Z,7.05
2023-05-15T23:25:07.400Z,7.68
2023-05-15T23:30:01.914Z,6.93
2023-05-15T23:34:54.465Z,4.68
2023-05-15T23:39:46.256Z,2.92
2023-05-15T23:44:38.730Z,1.77
2023-05-15T23:49:32.823Z,1.30
2023-05-15T23:54:24.764Z,0.50
2023-05-15T23:59:16.398Z,0.47
